Hartford, Connecticut
Traffic Map
Current Weather Conditions
Hartford, Connecticut
Scattered Clouds
Scattered Clouds
26°
Feels Like: 19°
Wind Chill: 19° Ceiling: Unl
Heat Index: 26° Visibility: 10mi
Dew Point: 18° Wind: 6mph
Humidity: 71% Direction: ° ()
Pressure: 30.28in Gusts: 0mph
Raw Report DataKHFD 201153Z VRB05KT 10SM SCT033 M03/M08 A3028 RMK AO2 SLP253 T10331078 11017 21033 51025
Traffic Incident Summary
Active as of:
Severity:
Category:
InformationThere was an issue retrieving the traffic information for this location. Please try a different location or try again shortly.
Advertisements
Track Severe Weather on mobile